Eko 2 — SY9957 — position and weather

sailwx.info

Track history (hours):
 
Tides and Currents Weather Stations Pressure Air Temp Water Temp Dewpoint Dewpoint Depression Visibility Wind Speed Wind Dir Waves Ship Positions

Eko 2

Last reported at 2016-Jul-18 13:33 UTC. Time now 2016-Jul-24 14:45 UTC.
Position N 37°08' E 025°40'.

Length 89 m; draft 4.3 m.

Type: Ship (hazmat cat A). MMSI: 240827000.

Date/timePositionNaut miles runAvg speedWind from/ knotsBaromVisibWave heightAir tempDewpointWater temp
2016-Jul-18 13:33N 37°08' E 025°40'1110.1
2016-Jul-18 12:31N 37°14' E 025°30'9 9.8
2016-Jul-18 11:33N 37°18' E 025°19'1010.4
2016-Jul-18 10:33N 37°23' E 025°07'4 0.2
2016-Jul-17 15:15N 37°24' E 025°02'710.4
2016-Jul-17 14:33N 37°19' E 025°08'1010.0
2016-Jul-17 13:33N 37°11' E 025°17'7 6.6
2016-Jul-17 12:33N 37°06' E 025°22'0 0.2
2016-Jul-17 11:31N 37°06' E 025°22'0 0.0
2016-Jul-17 10:31N 37°06' E 025°22'0 0.0
2016-Jul-17 09:31N 37°06' E 025°22'0 0.0
2016-Jul-17 08:31N 37°06' E 025°22'0 0.0
2016-Jul-17 07:31N 37°06' E 025°22'0 0.0
2016-Jul-17 06:31N 37°06' E 025°22'1 0.4
2016-Jul-17 04:33N 37°06' E 025°22'0 0.0
2016-Jul-17 03:33N 37°06' E 025°22'0 0.0
2016-Jul-17 02:33N 37°06' E 025°22'0 0.0
2016-Jul-17 01:33N 37°06' E 025°22'0 0.0
2016-Jul-17 00:34N 37°06' E 025°22'7 6.7
2016-Jul-16 23:34N 37°12' E 025°17'1510.2
2016-Jul-16 22:06N 37°18' E 024°60'510.0
2016-Jul-16 21:33N 37°20' E 024°54'1010.5
2016-Jul-16 20:34N 37°27' E 024°44'1110.6
2016-Jul-16 19:34N 37°35' E 024°35'10 9.9
2016-Jul-16 18:33N 37°41' E 024°25'22 3.5
2016-Jul-16 12:18N 37°37' E 023°57'810.4
2016-Jul-16 11:33N 37°39' E 023°48'10 9.4
2016-Jul-16 10:33N 37°46' E 023°39'1010.3
2016-Jul-16 09:33N 37°56' E 023°36'7 6.7
2016-Jul-16 08:31N 38°02' E 023°32'0 0.0
2016-Jul-16 07:31N 38°02' E 023°32'0 0.0
2016-Jul-16 06:31N 38°02' E 023°32'0 0.0
2016-Jul-16 04:31N 38°02' E 023°32'0 0.0
2016-Jul-16 03:31N 38°02' E 023°32'0 0.0
2016-Jul-16 02:31N 38°02' E 023°32'0 0.0
2016-Jul-16 01:31N 38°02' E 023°32'0 0.0
2016-Jul-16 00:31N 38°02' E 023°32'0 0.0
2016-Jul-15 23:31N 38°02' E 023°32'0 0.0
2016-Jul-15 22:31N 38°02' E 023°32'0 0.0
2016-Jul-15 21:28N 38°02' E 023°32'2 2.3
2016-Jul-15 20:33N 38°02' E 023°35'0 0.5
2016-Jul-15 19:31N 38°02' E 023°36'0 0.0
2016-Jul-15 18:31N 38°02' E 023°36'0 0.0
2016-Jul-15 17:31N 38°02' E 023°36'0 0.0
2016-Jul-15 16:31N 38°02' E 023°36'0 0.0
2016-Jul-15 15:31N 38°02' E 023°36'0 0.0
2016-Jul-15 14:10N 38°02' E 023°36'0 0.0
2016-Jul-15 13:31N 38°02' E 023°36'2 2.2
2016-Jul-15 12:33N 38°02' E 023°33'0 0.4
2016-Jul-15 11:33N 38°02' E 023°32'0 0.0
2016-Jul-15 10:33N 38°02' E 023°32'0 0.0
2016-Jul-15 09:33N 38°02' E 023°32'0 0.0
2016-Jul-15 08:33N 38°02' E 023°32'0 0.0
2016-Jul-15 07:33N 38°02' E 023°32'0 0.0
2016-Jul-15 06:30N 38°02' E 023°32'0 0.1
2016-Jul-15 05:33N 38°02' E 023°32'7 6.7
2016-Jul-15 04:34N 37°56' E 023°35'8 8.2
2016-Jul-15 03:33N 37°48' E 023°41'10 9.6
2016-Jul-15 02:33N 37°40' E 023°47'1010.0
2016-Jul-15 01:34N 37°33' E 023°56'10 9.9
2016-Jul-15 00:34N 37°27' E 024°05'10 9.9
2016-Jul-14 23:33N 37°21' E 024°16'  
Track history (hours):
 
Tides and Currents Weather Stations Pressure Air Temp Water Temp Dewpoint Dewpoint Depression Visibility Wind Speed Wind Dir Waves Ship Positions

Eko 2

Last reported at 2016-Jul-18 13:33 UTC. Time now 2016-Jul-24 14:45 UTC.
Position N 37°08' E 025°40'.

Length 89 m; draft 4.3 m.

Type: Ship (hazmat cat A). MMSI: 240827000.

Date/timePositionNaut miles runAvg speedWind from/ knotsBaromVisibWave heightAir tempDewpointWater temp
2016-Jul-18 13:33N 37°08' E 025°40'1110.1
2016-Jul-18 12:31N 37°14' E 025°30'9 9.8
2016-Jul-18 11:33N 37°18' E 025°19'1010.4
2016-Jul-18 10:33N 37°23' E 025°07'4 0.2
2016-Jul-17 15:15N 37°24' E 025°02'710.4
2016-Jul-17 14:33N 37°19' E 025°08'1010.0
2016-Jul-17 13:33N 37°11' E 025°17'7 6.6
2016-Jul-17 12:33N 37°06' E 025°22'0 0.2
2016-Jul-17 11:31N 37°06' E 025°22'0 0.0
2016-Jul-17 10:31N 37°06' E 025°22'0 0.0
2016-Jul-17 09:31N 37°06' E 025°22'0 0.0
2016-Jul-17 08:31N 37°06' E 025°22'0 0.0
2016-Jul-17 07:31N 37°06' E 025°22'0 0.0
2016-Jul-17 06:31N 37°06' E 025°22'1 0.4
2016-Jul-17 04:33N 37°06' E 025°22'0 0.0
2016-Jul-17 03:33N 37°06' E 025°22'0 0.0
2016-Jul-17 02:33N 37°06' E 025°22'0 0.0
2016-Jul-17 01:33N 37°06' E 025°22'0 0.0
2016-Jul-17 00:34N 37°06' E 025°22'7 6.7
2016-Jul-16 23:34N 37°12' E 025°17'1510.2
2016-Jul-16 22:06N 37°18' E 024°60'510.0
2016-Jul-16 21:33N 37°20' E 024°54'1010.5
2016-Jul-16 20:34N 37°27' E 024°44'1110.6
2016-Jul-16 19:34N 37°35' E 024°35'10 9.9
2016-Jul-16 18:33N 37°41' E 024°25'22 3.5
2016-Jul-16 12:18N 37°37' E 023°57'810.4
2016-Jul-16 11:33N 37°39' E 023°48'10 9.4
2016-Jul-16 10:33N 37°46' E 023°39'1010.3
2016-Jul-16 09:33N 37°56' E 023°36'7 6.7
2016-Jul-16 08:31N 38°02' E 023°32'0 0.0
2016-Jul-16 07:31N 38°02' E 023°32'0 0.0
2016-Jul-16 06:31N 38°02' E 023°32'0 0.0
2016-Jul-16 04:31N 38°02' E 023°32'0 0.0
2016-Jul-16 03:31N 38°02' E 023°32'0 0.0
2016-Jul-16 02:31N 38°02' E 023°32'0 0.0
2016-Jul-16 01:31N 38°02' E 023°32'0 0.0
2016-Jul-16 00:31N 38°02' E 023°32'0 0.0
2016-Jul-15 23:31N 38°02' E 023°32'0 0.0
2016-Jul-15 22:31N 38°02' E 023°32'0 0.0
2016-Jul-15 21:28N 38°02' E 023°32'2 2.3
2016-Jul-15 20:33N 38°02' E 023°35'0 0.5
2016-Jul-15 19:31N 38°02' E 023°36'0 0.0
2016-Jul-15 18:31N 38°02' E 023°36'0 0.0
2016-Jul-15 17:31N 38°02' E 023°36'0 0.0
2016-Jul-15 16:31N 38°02' E 023°36'0 0.0
2016-Jul-15 15:31N 38°02' E 023°36'0 0.0
2016-Jul-15 14:10N 38°02' E 023°36'0 0.0
2016-Jul-15 13:31N 38°02' E 023°36'2 2.2
2016-Jul-15 12:33N 38°02' E 023°33'0 0.4
2016-Jul-15 11:33N 38°02' E 023°32'0 0.0
2016-Jul-15 10:33N 38°02' E 023°32'0 0.0
2016-Jul-15 09:33N 38°02' E 023°32'0 0.0
2016-Jul-15 08:33N 38°02' E 023°32'0 0.0
2016-Jul-15 07:33N 38°02' E 023°32'0 0.0
2016-Jul-15 06:30N 38°02' E 023°32'0 0.1
2016-Jul-15 05:33N 38°02' E 023°32'7 6.7
2016-Jul-15 04:34N 37°56' E 023°35'8 8.2
2016-Jul-15 03:33N 37°48' E 023°41'10 9.6
2016-Jul-15 02:33N 37°40' E 023°47'1010.0
2016-Jul-15 01:34N 37°33' E 023°56'10 9.9
2016-Jul-15 00:34N 37°27' E 024°05'10 9.9
2016-Jul-14 23:33N 37°21' E 024°16'  

Dump ship's entire track history